sensor_id;sensor_type;location;lat;lon;timestamp;P1;durP1;ratioP1;P2;durP2;ratioP2
44822;SDS011;51097;51.984;5.650;2023-04-25T00:01:35;9.98;;;3.95;;
44822;SDS011;51097;51.984;5.650;2023-04-25T00:04:02;9.60;;;3.42;;
44822;SDS011;51097;51.984;5.650;2023-04-25T00:06:28;7.85;;;3.40;;
44822;SDS011;51097;51.984;5.650;2023-04-25T00:08:54;7.45;;;2.72;;
44822;SDS011;51097;51.984;5.650;2023-04-25T00:11:21;10.18;;;3.35;;
44822;SDS011;51097;51.984;5.650;2023-04-25T00:13:47;7.10;;;3.15;;
44822;SDS011;51097;51.984;5.650;2023-04-25T00:16:14;12.32;;;4.10;;
44822;SDS011;51097;51.984;5.650;2023-04-25T00:18:41;12.85;;;3.53;;
44822;SDS011;51097;51.984;5.650;2023-04-25T00:21:06;6.43;;;3.13;;
44822;SDS011;51097;51.984;5.650;2023-04-25T00:23:32;8.57;;;3.33;;
44822;SDS011;51097;51.984;5.650;2023-04-25T00:26:00;8.85;;;2.95;;
44822;SDS011;51097;51.984;5.650;2023-04-25T00:28:26;19.58;;;4.65;;
44822;SDS011;51097;51.984;5.650;2023-04-25T00:30:51;9.52;;;3.25;;
44822;SDS011;51097;51.984;5.650;2023-04-25T00:33:17;7.72;;;2.97;;
44822;SDS011;51097;51.984;5.650;2023-04-25T00:35:42;11.27;;;4.55;;
44822;SDS011;51097;51.984;5.650;2023-04-25T00:38:08;16.85;;;4.18;;
44822;SDS011;51097;51.984;5.650;2023-04-25T00:40:33;12.25;;;4.13;;
44822;SDS011;51097;51.984;5.650;2023-04-25T00:42:59;12.48;;;3.75;;
44822;SDS011;51097;51.984;5.650;2023-04-25T00:45:27;12.77;;;4.47;;
44822;SDS011;51097;51.984;5.650;2023-04-25T00:47:54;12.98;;;4.40;;
44822;SDS011;51097;51.984;5.650;2023-04-25T00:50:20;12.48;;;4.07;;
44822;SDS011;51097;51.984;5.650;2023-04-25T00:52:46;15.05;;;4.20;;
44822;SDS011;51097;51.984;5.650;2023-04-25T00:55:12;20.13;;;4.20;;
44822;SDS011;51097;51.984;5.650;2023-04-25T00:57:38;13.98;;;4.40;;
44822;SDS011;51097;51.984;5.650;2023-04-25T01:00:06;15.32;;;4.20;;
44822;SDS011;51097;51.984;5.650;2023-04-25T01:02:34;13.52;;;4.20;;
44822;SDS011;51097;51.984;5.650;2023-04-25T01:05:00;15.50;;;5.60;;
44822;SDS011;51097;51.984;5.650;2023-04-25T01:07:27;16.02;;;5.82;;
44822;SDS011;51097;51.984;5.650;2023-04-25T01:09:52;14.93;;;4.85;;
44822;SDS011;51097;51.984;5.650;2023-04-25T01:12:18;14.25;;;5.15;;
44822;SDS011;51097;51.984;5.650;2023-04-25T01:14:43;18.58;;;4.57;;
44822;SDS011;51097;51.984;5.650;2023-04-25T01:17:10;16.95;;;5.55;;
44822;SDS011;51097;51.984;5.650;2023-04-25T01:19:35;18.63;;;5.20;;
44822;SDS011;51097;51.984;5.650;2023-04-25T01:22:01;20.80;;;5.90;;
44822;SDS011;51097;51.984;5.650;2023-04-25T01:24:27;11.60;;;4.72;;
44822;SDS011;51097;51.984;5.650;2023-04-25T01:26:53;20.63;;;5.75;;
44822;SDS011;51097;51.984;5.650;2023-04-25T01:29:21;21.30;;;5.82;;
44822;SDS011;51097;51.984;5.650;2023-04-25T01:31:47;20.85;;;5.32;;
44822;SDS011;51097;51.984;5.650;2023-04-25T01:34:13;15.15;;;4.97;;
44822;SDS011;51097;51.984;5.650;2023-04-25T01:36:39;14.93;;;5.28;;
44822;SDS011;51097;51.984;5.650;2023-04-25T01:39:05;15.10;;;5.18;;
44822;SDS011;51097;51.984;5.650;2023-04-25T01:41:31;16.95;;;4.80;;
44822;SDS011;51097;51.984;5.650;2023-04-25T01:43:59;13.60;;;5.30;;
44822;SDS011;51097;51.984;5.650;2023-04-25T01:46:26;17.35;;;4.68;;
44822;SDS011;51097;51.984;5.650;2023-04-25T01:48:52;17.35;;;6.10;;
44822;SDS011;51097;51.984;5.650;2023-04-25T01:51:17;15.70;;;5.53;;
44822;SDS011;51097;51.984;5.650;2023-04-25T01:53:43;19.13;;;5.35;;
44822;SDS011;51097;51.984;5.650;2023-04-25T01:56:09;12.77;;;5.03;;
44822;SDS011;51097;51.984;5.650;2023-04-25T01:58:35;12.85;;;4.80;;
44822;SDS011;51097;51.984;5.650;2023-04-25T02:01:01;17.08;;;4.85;;
44822;SDS011;51097;51.984;5.650;2023-04-25T02:03:26;10.10;;;3.70;;
44822;SDS011;51097;51.984;5.650;2023-04-25T02:05:52;12.98;;;4.38;;
44822;SDS011;51097;51.984;5.650;2023-04-25T02:08:17;15.30;;;5.68;;
44822;SDS011;51097;51.984;5.650;2023-04-25T02:10:43;15.23;;;4.47;;
44822;SDS011;51097;51.984;5.650;2023-04-25T02:13:09;13.20;;;4.72;;
44822;SDS011;51097;51.984;5.650;2023-04-25T02:15:35;17.08;;;4.38;;
44822;SDS011;51097;51.984;5.650;2023-04-25T02:18:00;12.23;;;4.00;;
44822;SDS011;51097;51.984;5.650;2023-04-25T02:20:27;14.32;;;5.47;;
44822;SDS011;51097;51.984;5.650;2023-04-25T02:22:53;17.10;;;4.13;;
44822;SDS011;51097;51.984;5.650;2023-04-25T02:25:19;11.73;;;4.28;;
44822;SDS011;51097;51.984;5.650;2023-04-25T02:27:46;14.40;;;5.35;;
44822;SDS011;51097;51.984;5.650;2023-04-25T02:30:12;15.45;;;4.18;;
44822;SDS011;51097;51.984;5.650;2023-04-25T02:32:38;12.35;;;4.00;;
44822;SDS011;51097;51.984;5.650;2023-04-25T02:35:04;11.10;;;6.30;;
44822;SDS011;51097;51.984;5.650;2023-04-25T02:37:31;16.42;;;4.03;;
44822;SDS011;51097;51.984;5.650;2023-04-25T02:39:57;10.15;;;4.35;;
44822;SDS011;51097;51.984;5.650;2023-04-25T02:42:23;16.75;;;4.25;;
44822;SDS011;51097;51.984;5.650;2023-04-25T02:44:48;12.40;;;4.05;;
44822;SDS011;51097;51.984;5.650;2023-04-25T02:47:14;11.38;;;3.83;;
44822;SDS011;51097;51.984;5.650;2023-04-25T02:49:40;15.43;;;4.38;;
44822;SDS011;51097;51.984;5.650;2023-04-25T02:52:05;17.02;;;3.95;;
44822;SDS011;51097;51.984;5.650;2023-04-25T02:54:31;11.93;;;4.18;;
44822;SDS011;51097;51.984;5.650;2023-04-25T02:56:57;15.43;;;5.65;;
44822;SDS011;51097;51.984;5.650;2023-04-25T02:59:23;12.18;;;4.32;;
44822;SDS011;51097;51.984;5.650;2023-04-25T03:01:48;14.95;;;4.40;;
44822;SDS011;51097;51.984;5.650;2023-04-25T03:04:14;8.88;;;4.32;;
44822;SDS011;51097;51.984;5.650;2023-04-25T03:06:40;13.80;;;4.45;;
44822;SDS011;51097;51.984;5.650;2023-04-25T03:09:05;11.50;;;3.88;;
44822;SDS011;51097;51.984;5.650;2023-04-25T03:11:31;10.93;;;4.88;;
44822;SDS011;51097;51.984;5.650;2023-04-25T03:13:56;18.92;;;4.88;;
44822;SDS011;51097;51.984;5.650;2023-04-25T03:16:22;13.80;;;4.93;;
44822;SDS011;51097;51.984;5.650;2023-04-25T03:18:48;10.10;;;4.00;;
44822;SDS011;51097;51.984;5.650;2023-04-25T03:21:15;14.13;;;4.90;;
44822;SDS011;51097;51.984;5.650;2023-04-25T03:23:40;14.98;;;5.53;;
44822;SDS011;51097;51.984;5.650;2023-04-25T03:26:06;14.85;;;6.00;;
44822;SDS011;51097;51.984;5.650;2023-04-25T03:28:31;15.52;;;5.70;;
44822;SDS011;51097;51.984;5.650;2023-04-25T03:30:57;12.40;;;5.50;;
44822;SDS011;51097;51.984;5.650;2023-04-25T03:33:23;17.38;;;5.32;;
44822;SDS011;51097;51.984;5.650;2023-04-25T03:35:48;15.75;;;6.18;;
44822;SDS011;51097;51.984;5.650;2023-04-25T03:38:14;12.93;;;5.93;;
44822;SDS011;51097;51.984;5.650;2023-04-25T03:40:40;13.15;;;6.45;;
44822;SDS011;51097;51.984;5.650;2023-04-25T03:43:06;19.35;;;6.70;;
44822;SDS011;51097;51.984;5.650;2023-04-25T03:45:32;16.10;;;5.75;;
44822;SDS011;51097;51.984;5.650;2023-04-25T03:47:57;16.83;;;6.40;;
44822;SDS011;51097;51.984;5.650;2023-04-25T03:50:23;16.23;;;6.28;;
44822;SDS011;51097;51.984;5.650;2023-04-25T03:52:49;21.10;;;6.45;;
44822;SDS011;51097;51.984;5.650;2023-04-25T03:55:14;12.98;;;6.25;;
44822;SDS011;51097;51.984;5.650;2023-04-25T03:57:40;12.82;;;6.20;;
44822;SDS011;51097;51.984;5.650;2023-04-25T04:00:06;20.95;;;8.07;;
44822;SDS011;51097;51.984;5.650;2023-04-25T04:02:32;20.02;;;7.15;;
44822;SDS011;51097;51.984;5.650;2023-04-25T04:04:59;16.15;;;7.40;;
44822;SDS011;51097;51.984;5.650;2023-04-25T04:07:25;14.27;;;5.90;;
44822;SDS011;51097;51.984;5.650;2023-04-25T04:09:51;17.58;;;7.30;;
44822;SDS011;51097;51.984;5.650;2023-04-25T04:12:16;15.77;;;7.43;;
44822;SDS011;51097;51.984;5.650;2023-04-25T04:14:45;15.75;;;6.70;;
44822;SDS011;51097;51.984;5.650;2023-04-25T04:17:10;19.50;;;6.43;;
44822;SDS011;51097;51.984;5.650;2023-04-25T04:19:36;19.80;;;7.43;;
44822;SDS011;51097;51.984;5.650;2023-04-25T04:22:04;14.18;;;5.38;;
44822;SDS011;51097;51.984;5.650;2023-04-25T04:24:29;14.77;;;6.85;;
44822;SDS011;51097;51.984;5.650;2023-04-25T04:26:58;16.65;;;6.65;;
44822;SDS011;51097;51.984;5.650;2023-04-25T04:29:24;15.55;;;5.40;;
44822;SDS011;51097;51.984;5.650;2023-04-25T04:31:50;13.90;;;5.30;;
44822;SDS011;51097;51.984;5.650;2023-04-25T04:34:16;13.48;;;4.20;;
44822;SDS011;51097;51.984;5.650;2023-04-25T04:36:43;9.15;;;4.40;;
44822;SDS011;51097;51.984;5.650;2023-04-25T04:39:11;15.18;;;5.20;;
44822;SDS011;51097;51.984;5.650;2023-04-25T04:41:37;13.05;;;4.68;;
44822;SDS011;51097;51.984;5.650;2023-04-25T04:44:02;15.23;;;4.95;;
44822;SDS011;51097;51.984;5.650;2023-04-25T04:46:28;19.65;;;4.93;;
44822;SDS011;51097;51.984;5.650;2023-04-25T04:48:55;13.73;;;4.05;;
44822;SDS011;51097;51.984;5.650;2023-04-25T04:51:21;23.85;;;5.00;;
44822;SDS011;51097;51.984;5.650;2023-04-25T04:53:46;17.05;;;5.88;;
44822;SDS011;51097;51.984;5.650;2023-04-25T04:56:12;11.68;;;4.00;;
44822;SDS011;51097;51.984;5.650;2023-04-25T04:58:38;16.27;;;5.40;;
44822;SDS011;51097;51.984;5.650;2023-04-25T05:01:03;10.90;;;4.53;;
44822;SDS011;51097;51.984;5.650;2023-04-25T05:03:29;10.25;;;2.88;;
44822;SDS011;51097;51.984;5.650;2023-04-25T05:05:54;10.07;;;3.80;;
44822;SDS011;51097;51.984;5.650;2023-04-25T05:08:20;15.77;;;4.30;;
44822;SDS011;51097;51.984;5.650;2023-04-25T05:10:45;10.80;;;4.32;;
44822;SDS011;51097;51.984;5.650;2023-04-25T05:13:11;9.15;;;3.42;;
44822;SDS011;51097;51.984;5.650;2023-04-25T05:15:36;14.38;;;3.83;;
44822;SDS011;51097;51.984;5.650;2023-04-25T05:18:02;10.55;;;4.40;;
44822;SDS011;51097;51.984;5.650;2023-04-25T05:20:28;12.20;;;4.03;;
44822;SDS011;51097;51.984;5.650;2023-04-25T05:22:53;17.17;;;5.35;;
44822;SDS011;51097;51.984;5.650;2023-04-25T05:25:19;12.20;;;4.32;;
44822;SDS011;51097;51.984;5.650;2023-04-25T05:27:44;10.20;;;4.05;;
44822;SDS011;51097;51.984;5.650;2023-04-25T05:30:10;9.43;;;4.20;;
44822;SDS011;51097;51.984;5.650;2023-04-25T05:32:36;12.40;;;4.00;;
44822;SDS011;51097;51.984;5.650;2023-04-25T05:35:01;9.65;;;4.20;;
44822;SDS011;51097;51.984;5.650;2023-04-25T05:37:27;9.60;;;3.95;;
44822;SDS011;51097;51.984;5.650;2023-04-25T05:39:55;9.60;;;3.45;;
44822;SDS011;51097;51.984;5.650;2023-04-25T05:42:21;15.60;;;4.20;;
44822;SDS011;51097;51.984;5.650;2023-04-25T05:44:46;9.68;;;3.88;;
44822;SDS011;51097;51.984;5.650;2023-04-25T05:47:12;11.30;;;3.58;;
44822;SDS011;51097;51.984;5.650;2023-04-25T05:49:38;7.45;;;3.20;;
44822;SDS011;51097;51.984;5.650;2023-04-25T05:52:03;8.18;;;3.00;;
44822;SDS011;51097;51.984;5.650;2023-04-25T05:54:29;9.63;;;3.70;;
44822;SDS011;51097;51.984;5.650;2023-04-25T05:56:56;9.25;;;3.22;;
44822;SDS011;51097;51.984;5.650;2023-04-25T05:59:22;11.00;;;3.50;;
44822;SDS011;51097;51.984;5.650;2023-04-25T06:01:48;11.02;;;3.10;;
44822;SDS011;51097;51.984;5.650;2023-04-25T06:04:13;12.85;;;4.45;;
44822;SDS011;51097;51.984;5.650;2023-04-25T06:06:39;6.97;;;3.47;;
44822;SDS011;51097;51.984;5.650;2023-04-25T06:09:04;10.55;;;3.35;;
44822;SDS011;51097;51.984;5.650;2023-04-25T06:11:30;12.18;;;3.38;;
44822;SDS011;51097;51.984;5.650;2023-04-25T06:13:55;7.30;;;3.80;;
44822;SDS011;51097;51.984;5.650;2023-04-25T06:16:21;7.68;;;2.60;;
44822;SDS011;51097;51.984;5.650;2023-04-25T06:18:47;9.02;;;2.83;;
44822;SDS011;51097;51.984;5.650;2023-04-25T06:21:12;9.93;;;3.13;;
44822;SDS011;51097;51.984;5.650;2023-04-25T06:23:38;7.40;;;2.40;;
44822;SDS011;51097;51.984;5.650;2023-04-25T06:26:03;8.57;;;2.55;;
44822;SDS011;51097;51.984;5.650;2023-04-25T06:28:29;8.93;;;4.15;;
44822;SDS011;51097;51.984;5.650;2023-04-25T06:30:54;6.05;;;2.45;;
44822;SDS011;51097;51.984;5.650;2023-04-25T06:33:20;14.27;;;3.05;;
44822;SDS011;51097;51.984;5.650;2023-04-25T06:35:46;11.73;;;3.05;;
44822;SDS011;51097;51.984;5.650;2023-04-25T06:38:12;7.45;;;2.45;;
44822;SDS011;51097;51.984;5.650;2023-04-25T06:40:37;12.18;;;2.75;;
44822;SDS011;51097;51.984;5.650;2023-04-25T06:43:03;13.27;;;2.78;;
44822;SDS011;51097;51.984;5.650;2023-04-25T06:45:28;12.32;;;3.40;;
44822;SDS011;51097;51.984;5.650;2023-04-25T06:47:54;9.48;;;2.97;;
44822;SDS011;51097;51.984;5.650;2023-04-25T06:50:20;5.43;;;3.00;;
44822;SDS011;51097;51.984;5.650;2023-04-25T06:52:45;10.02;;;3.22;;
44822;SDS011;51097;51.984;5.650;2023-04-25T06:55:11;8.82;;;3.53;;
44822;SDS011;51097;51.984;5.650;2023-04-25T06:57:36;8.40;;;2.00;;
44822;SDS011;51097;51.984;5.650;2023-04-25T07:00:02;10.98;;;2.40;;
44822;SDS011;51097;51.984;5.650;2023-04-25T07:02:30;9.25;;;3.17;;
44822;SDS011;51097;51.984;5.650;2023-04-25T07:04:56;10.23;;;3.38;;
44822;SDS011;51097;51.984;5.650;2023-04-25T07:07:24;11.43;;;2.75;;
44822;SDS011;51097;51.984;5.650;2023-04-25T07:09:50;8.07;;;2.13;;
44822;SDS011;51097;51.984;5.650;2023-04-25T07:12:16;5.53;;;2.17;;
44822;SDS011;51097;51.984;5.650;2023-04-25T07:14:41;10.30;;;2.47;;
44822;SDS011;51097;51.984;5.650;2023-04-25T07:17:07;9.18;;;3.03;;
44822;SDS011;51097;51.984;5.650;2023-04-25T07:19:32;6.68;;;2.63;;
44822;SDS011;51097;51.984;5.650;2023-04-25T07:21:58;11.10;;;2.78;;
44822;SDS011;51097;51.984;5.650;2023-04-25T07:24:24;9.00;;;2.20;;
44822;SDS011;51097;51.984;5.650;2023-04-25T07:26:49;9.85;;;2.50;;
44822;SDS011;51097;51.984;5.650;2023-04-25T07:29:15;10.80;;;2.30;;
44822;SDS011;51097;51.984;5.650;2023-04-25T07:31:40;4.63;;;2.10;;
44822;SDS011;51097;51.984;5.650;2023-04-25T07:34:06;13.80;;;2.65;;
44822;SDS011;51097;51.984;5.650;2023-04-25T07:36:32;8.85;;;2.15;;
44822;SDS011;51097;51.984;5.650;2023-04-25T07:38:58;9.95;;;2.60;;
44822;SDS011;51097;51.984;5.650;2023-04-25T07:41:23;10.82;;;2.63;;
44822;SDS011;51097;51.984;5.650;2023-04-25T07:43:49;14.55;;;2.47;;
44822;SDS011;51097;51.984;5.650;2023-04-25T07:46:14;6.85;;;2.50;;
44822;SDS011;51097;51.984;5.650;2023-04-25T07:48:40;7.97;;;2.40;;
44822;SDS011;51097;51.984;5.650;2023-04-25T07:51:05;18.27;;;2.90;;
44822;SDS011;51097;51.984;5.650;2023-04-25T07:53:33;10.30;;;3.00;;
44822;SDS011;51097;51.984;5.650;2023-04-25T07:55:59;13.18;;;2.65;;
44822;SDS011;51097;51.984;5.650;2023-04-25T07:58:25;13.32;;;1.77;;
44822;SDS011;51097;51.984;5.650;2023-04-25T08:00:51;9.40;;;2.72;;
44822;SDS011;51097;51.984;5.650;2023-04-25T08:03:16;8.00;;;2.30;;
44822;SDS011;51097;51.984;5.650;2023-04-25T08:05:42;9.18;;;2.42;;
44822;SDS011;51097;51.984;5.650;2023-04-25T08:08:07;9.77;;;2.05;;
44822;SDS011;51097;51.984;5.650;2023-04-25T08:10:33;8.90;;;2.47;;
44822;SDS011;51097;51.984;5.650;2023-04-25T08:12:59;10.20;;;2.30;;
44822;SDS011;51097;51.984;5.650;2023-04-25T08:15:25;5.68;;;2.60;;
44822;SDS011;51097;51.984;5.650;2023-04-25T08:17:51;6.85;;;2.17;;
44822;SDS011;51097;51.984;5.650;2023-04-25T08:20:16;5.93;;;1.85;;
44822;SDS011;51097;51.984;5.650;2023-04-25T08:22:42;9.40;;;3.03;;
44822;SDS011;51097;51.984;5.650;2023-04-25T08:25:08;6.13;;;2.90;;
44822;SDS011;51097;51.984;5.650;2023-04-25T08:27:33;6.93;;;2.10;;
44822;SDS011;51097;51.984;5.650;2023-04-25T08:29:59;9.27;;;2.22;;
44822;SDS011;51097;51.984;5.650;2023-04-25T08:32:26;8.55;;;3.03;;
44822;SDS011;51097;51.984;5.650;2023-04-25T08:34:51;7.22;;;1.60;;
44822;SDS011;51097;51.984;5.650;2023-04-25T08:37:19;7.53;;;1.67;;
44822;SDS011;51097;51.984;5.650;2023-04-25T08:39:45;7.80;;;1.63;;
44822;SDS011;51097;51.984;5.650;2023-04-25T08:42:13;5.32;;;1.67;;
44822;SDS011;51097;51.984;5.650;2023-04-25T08:44:40;5.07;;;1.52;;
44822;SDS011;51097;51.984;5.650;2023-04-25T08:47:05;3.28;;;1.33;;
44822;SDS011;51097;51.984;5.650;2023-04-25T08:49:32;2.15;;;1.40;;
44822;SDS011;51097;51.984;5.650;2023-04-25T08:52:02;8.63;;;2.92;;
44822;SDS011;51097;51.984;5.650;2023-04-25T08:54:30;8.55;;;2.33;;
44822;SDS011;51097;51.984;5.650;2023-04-25T08:56:57;4.40;;;1.33;;
44822;SDS011;51097;51.984;5.650;2023-04-25T08:59:27;6.93;;;2.38;;
44822;SDS011;51097;51.984;5.650;2023-04-25T09:01:53;5.80;;;1.45;;
44822;SDS011;51097;51.984;5.650;2023-04-25T09:04:18;9.07;;;1.52;;
44822;SDS011;51097;51.984;5.650;2023-04-25T09:06:45;9.82;;;2.63;;
44822;SDS011;51097;51.984;5.650;2023-04-25T09:09:11;2.85;;;1.00;;
44822;SDS011;51097;51.984;5.650;2023-04-25T09:11:37;2.92;;;0.82;;
44822;SDS011;51097;51.984;5.650;2023-04-25T09:14:09;3.05;;;1.25;;
44822;SDS011;51097;51.984;5.650;2023-04-25T09:19:22;2.40;;;0.95;;
44822;SDS011;51097;51.984;5.650;2023-04-25T09:21:50;3.08;;;1.23;;
44822;SDS011;51097;51.984;5.650;2023-04-25T09:24:16;6.40;;;1.55;;
44822;SDS011;51097;51.984;5.650;2023-04-25T09:26:54;5.75;;;1.00;;
44822;SDS011;51097;51.984;5.650;2023-04-25T09:29:20;3.50;;;1.23;;
44822;SDS011;51097;51.984;5.650;2023-04-25T09:32:10;5.70;;;2.13;;
44822;SDS011;51097;51.984;5.650;2023-04-25T09:34:46;6.00;;;1.45;;
44822;SDS011;51097;51.984;5.650;2023-04-25T09:37:17;7.43;;;1.77;;
44822;SDS011;51097;51.984;5.650;2023-04-25T09:42:21;6.72;;;1.20;;
44822;SDS011;51097;51.984;5.650;2023-04-25T09:44:52;5.22;;;1.00;;
44822;SDS011;51097;51.984;5.650;2023-04-25T09:47:18;4.65;;;1.75;;
44822;SDS011;51097;51.984;5.650;2023-04-25T09:49:46;8.10;;;1.40;;
44822;SDS011;51097;51.984;5.650;2023-04-25T09:52:19;7.30;;;2.42;;
44822;SDS011;51097;51.984;5.650;2023-04-25T09:54:46;3.95;;;1.70;;
44822;SDS011;51097;51.984;5.650;2023-04-25T09:57:23;3.45;;;1.30;;
44822;SDS011;51097;51.984;5.650;2023-04-25T09:59:50;4.63;;;1.15;;
44822;SDS011;51097;51.984;5.650;2023-04-25T10:02:20;6.65;;;2.45;;
44822;SDS011;51097;51.984;5.650;2023-04-25T10:04:48;9.05;;;1.70;;
44822;SDS011;51097;51.984;5.650;2023-04-25T10:09:44;6.10;;;1.83;;
44822;SDS011;51097;51.984;5.650;2023-04-25T10:12:17;7.32;;;1.75;;
44822;SDS011;51097;51.984;5.650;2023-04-25T10:14:43;5.28;;;1.20;;
44822;SDS011;51097;51.984;5.650;2023-04-25T10:17:09;8.50;;;2.60;;
44822;SDS011;51097;51.984;5.650;2023-04-25T10:19:36;5.78;;;1.52;;
44822;SDS011;51097;51.984;5.650;2023-04-25T10:22:04;6.00;;;1.30;;
44822;SDS011;51097;51.984;5.650;2023-04-25T10:24:55;5.57;;;1.52;;
44822;SDS011;51097;51.984;5.650;2023-04-25T10:27:21;6.75;;;1.38;;
44822;SDS011;51097;51.984;5.650;2023-04-25T10:29:59;5.15;;;1.35;;
44822;SDS011;51097;51.984;5.650;2023-04-25T10:32:30;4.20;;;1.25;;
44822;SDS011;51097;51.984;5.650;2023-04-25T10:34:57;7.43;;;1.58;;
44822;SDS011;51097;51.984;5.650;2023-04-25T10:37:22;5.30;;;1.20;;
44822;SDS011;51097;51.984;5.650;2023-04-25T10:39:49;4.80;;;1.15;;
44822;SDS011;51097;51.984;5.650;2023-04-25T10:42:14;6.50;;;1.20;;
44822;SDS011;51097;51.984;5.650;2023-04-25T10:44:40;2.83;;;1.00;;
44822;SDS011;51097;51.984;5.650;2023-04-25T10:47:34;4.45;;;1.25;;
44822;SDS011;51097;51.984;5.650;2023-04-25T10:50:04;6.72;;;1.63;;
44822;SDS011;51097;51.984;5.650;2023-04-25T10:52:33;4.25;;;1.70;;
44822;SDS011;51097;51.984;5.650;2023-04-25T10:54:59;4.65;;;0.95;;
44822;SDS011;51097;51.984;5.650;2023-04-25T11:00:07;8.25;;;1.77;;
44822;SDS011;51097;51.984;5.650;2023-04-25T11:02:40;4.22;;;1.65;;
44822;SDS011;51097;51.984;5.650;2023-04-25T11:05:15;3.17;;;0.95;;
44822;SDS011;51097;51.984;5.650;2023-04-25T11:08:01;5.43;;;1.25;;
44822;SDS011;51097;51.984;5.650;2023-04-25T11:10:29;3.88;;;1.02;;
44822;SDS011;51097;51.984;5.650;2023-04-25T11:12:57;5.70;;;1.15;;
44822;SDS011;51097;51.984;5.650;2023-04-25T11:15:23;5.80;;;1.42;;
44822;SDS011;51097;51.984;5.650;2023-04-25T11:17:52;6.05;;;1.33;;
44822;SDS011;51097;51.984;5.650;2023-04-25T11:20:19;2.10;;;0.93;;
44822;SDS011;51097;51.984;5.650;2023-04-25T11:22:45;2.83;;;1.15;;
44822;SDS011;51097;51.984;5.650;2023-04-25T11:25:12;3.15;;;0.98;;
44822;SDS011;51097;51.984;5.650;2023-04-25T11:27:58;2.25;;;1.10;;
44822;SDS011;51097;51.984;5.650;2023-04-25T11:30:26;3.30;;;0.70;;
44822;SDS011;51097;51.984;5.650;2023-04-25T11:32:52;3.03;;;0.85;;
44822;SDS011;51097;51.984;5.650;2023-04-25T11:35:18;2.25;;;1.17;;
44822;SDS011;51097;51.984;5.650;2023-04-25T11:37:44;3.53;;;1.00;;
44822;SDS011;51097;51.984;5.650;2023-04-25T11:40:10;5.55;;;1.90;;
44822;SDS011;51097;51.984;5.650;2023-04-25T11:42:37;5.00;;;1.58;;
44822;SDS011;51097;51.984;5.650;2023-04-25T11:45:03;4.55;;;1.38;;
44822;SDS011;51097;51.984;5.650;2023-04-25T11:47:30;4.88;;;1.25;;
44822;SDS011;51097;51.984;5.650;2023-04-25T11:50:00;7.22;;;1.92;;
44822;SDS011;51097;51.984;5.650;2023-04-25T11:52:42;3.08;;;0.82;;
44822;SDS011;51097;51.984;5.650;2023-04-25T11:55:10;4.22;;;1.15;;
44822;SDS011;51097;51.984;5.650;2023-04-25T11:57:42;8.02;;;1.70;;
44822;SDS011;51097;51.984;5.650;2023-04-25T12:02:42;7.60;;;1.65;;
44822;SDS011;51097;51.984;5.650;2023-04-25T12:05:09;4.47;;;1.77;;
44822;SDS011;51097;51.984;5.650;2023-04-25T12:07:35;3.60;;;1.20;;
44822;SDS011;51097;51.984;5.650;2023-04-25T12:10:09;5.93;;;1.50;;
44822;SDS011;51097;51.984;5.650;2023-04-25T12:12:36;5.18;;;1.27;;
44822;SDS011;51097;51.984;5.650;2023-04-25T12:15:18;3.97;;;1.15;;
44822;SDS011;51097;51.984;5.650;2023-04-25T12:17:48;5.75;;;1.30;;
44822;SDS011;51097;51.984;5.650;2023-04-25T12:20:16;4.78;;;1.17;;
44822;SDS011;51097;51.984;5.650;2023-04-25T12:22:44;4.30;;;1.10;;
44822;SDS011;51097;51.984;5.650;2023-04-25T12:25:57;4.50;;;1.23;;
44822;SDS011;51097;51.984;5.650;2023-04-25T12:30:52;6.07;;;1.23;;
44822;SDS011;51097;51.984;5.650;2023-04-25T12:33:26;4.60;;;1.50;;
44822;SDS011;51097;51.984;5.650;2023-04-25T12:35:53;1.95;;;1.20;;
44822;SDS011;51097;51.984;5.650;2023-04-25T12:38:28;8.07;;;1.15;;
44822;SDS011;51097;51.984;5.650;2023-04-25T12:41:00;4.75;;;1.23;;
44822;SDS011;51097;51.984;5.650;2023-04-25T12:43:26;6.60;;;1.17;;
44822;SDS011;51097;51.984;5.650;2023-04-25T12:45:52;3.90;;;1.33;;
44822;SDS011;51097;51.984;5.650;2023-04-25T12:48:19;5.32;;;2.05;;
44822;SDS011;51097;51.984;5.650;2023-04-25T12:50:46;5.93;;;1.52;;
44822;SDS011;51097;51.984;5.650;2023-04-25T12:53:15;7.78;;;1.73;;
44822;SDS011;51097;51.984;5.650;2023-04-25T12:55:45;5.38;;;1.63;;
44822;SDS011;51097;51.984;5.650;2023-04-25T12:58:12;4.88;;;1.70;;
44822;SDS011;51097;51.984;5.650;2023-04-25T13:00:38;6.68;;;2.15;;
44822;SDS011;51097;51.984;5.650;2023-04-25T13:03:04;5.75;;;1.48;;
44822;SDS011;51097;51.984;5.650;2023-04-25T13:05:30;5.30;;;1.63;;
44822;SDS011;51097;51.984;5.650;2023-04-25T13:07:55;4.60;;;1.20;;
44822;SDS011;51097;51.984;5.650;2023-04-25T13:10:21;4.80;;;1.00;;
44822;SDS011;51097;51.984;5.650;2023-04-25T13:12:47;4.15;;;1.63;;
44822;SDS011;51097;51.984;5.650;2023-04-25T13:15:13;3.50;;;1.77;;
44822;SDS011;51097;51.984;5.650;2023-04-25T13:17:40;2.45;;;1.30;;
44822;SDS011;51097;51.984;5.650;2023-04-25T13:20:06;4.63;;;1.25;;
44822;SDS011;51097;51.984;5.650;2023-04-25T13:22:37;4.10;;;1.10;;
44822;SDS011;51097;51.984;5.650;2023-04-25T13:25:04;5.10;;;1.60;;
44822;SDS011;51097;51.984;5.650;2023-04-25T13:27:31;4.35;;;1.42;;
44822;SDS011;51097;51.984;5.650;2023-04-25T13:29:58;5.00;;;1.15;;
44822;SDS011;51097;51.984;5.650;2023-04-25T13:32:35;3.33;;;1.30;;
44822;SDS011;51097;51.984;5.650;2023-04-25T13:35:02;2.72;;;1.38;;
44822;SDS011;51097;51.984;5.650;2023-04-25T13:37:29;7.05;;;1.98;;
44822;SDS011;51097;51.984;5.650;2023-04-25T13:39:57;4.22;;;1.02;;
44822;SDS011;51097;51.984;5.650;2023-04-25T13:42:26;6.72;;;1.58;;
44822;SDS011;51097;51.984;5.650;2023-04-25T13:44:51;3.35;;;1.05;;
44822;SDS011;51097;51.984;5.650;2023-04-25T13:47:17;2.03;;;0.70;;
44822;SDS011;51097;51.984;5.650;2023-04-25T13:49:42;5.32;;;1.23;;
44822;SDS011;51097;51.984;5.650;2023-04-25T13:52:08;3.15;;;0.93;;
44822;SDS011;51097;51.984;5.650;2023-04-25T13:54:33;3.80;;;1.30;;
44822;SDS011;51097;51.984;5.650;2023-04-25T13:56:59;2.97;;;1.10;;
44822;SDS011;51097;51.984;5.650;2023-04-25T13:59:25;4.85;;;1.25;;
44822;SDS011;51097;51.984;5.650;2023-04-25T14:01:51;3.67;;;1.27;;
44822;SDS011;51097;51.984;5.650;2023-04-25T14:04:16;4.00;;;1.20;;
44822;SDS011;51097;51.984;5.650;2023-04-25T14:06:42;2.28;;;1.17;;
44822;SDS011;51097;51.984;5.650;2023-04-25T14:09:08;2.72;;;1.20;;
44822;SDS011;51097;51.984;5.650;2023-04-25T14:11:36;5.13;;;1.55;;
44822;SDS011;51097;51.984;5.650;2023-04-25T14:14:01;3.60;;;1.50;;
44822;SDS011;51097;51.984;5.650;2023-04-25T14:16:27;6.50;;;1.58;;
44822;SDS011;51097;51.984;5.650;2023-04-25T14:18:56;3.13;;;1.15;;
44822;SDS011;51097;51.984;5.650;2023-04-25T14:21:22;3.63;;;1.38;;
44822;SDS011;51097;51.984;5.650;2023-04-25T14:23:48;4.80;;;1.30;;
44822;SDS011;51097;51.984;5.650;2023-04-25T14:26:14;5.32;;;1.77;;
44822;SDS011;51097;51.984;5.650;2023-04-25T14:28:40;5.05;;;1.30;;
44822;SDS011;51097;51.984;5.650;2023-04-25T14:31:05;7.45;;;1.27;;
44822;SDS011;51097;51.984;5.650;2023-04-25T14:33:31;2.60;;;0.98;;
44822;SDS011;51097;51.984;5.650;2023-04-25T14:35:57;3.70;;;1.35;;
44822;SDS011;51097;51.984;5.650;2023-04-25T14:38:22;3.70;;;1.20;;
44822;SDS011;51097;51.984;5.650;2023-04-25T14:40:50;5.40;;;0.93;;
44822;SDS011;51097;51.984;5.650;2023-04-25T14:43:16;4.07;;;1.45;;
44822;SDS011;51097;51.984;5.650;2023-04-25T14:45:41;5.22;;;1.70;;
44822;SDS011;51097;51.984;5.650;2023-04-25T14:48:07;2.97;;;1.40;;
44822;SDS011;51097;51.984;5.650;2023-04-25T14:50:33;8.18;;;1.40;;
44822;SDS011;51097;51.984;5.650;2023-04-25T14:52:59;5.53;;;1.52;;
44822;SDS011;51097;51.984;5.650;2023-04-25T14:55:25;4.18;;;1.20;;
44822;SDS011;51097;51.984;5.650;2023-04-25T14:57:52;6.55;;;1.55;;